Time;durP1;ratioP1;P1;durP2;ratioP2;P2;SDS_P1;SDS_P2;PMS_P1;PMS_P2;Temp;Humidity;BMP_temperature;BMP_pressure;BME280_temperature;BME280_humidity;BME280_pressure;Samples;Min_cycle;Max_cycle;Signal;HPM_P1;HPM_P2
2023/01/04 00:00:12;;;;;;;300.38;179.57;;;6.60;99.90;;;;;;4962914;28;20410;-71
2023/01/04 00:02:39;;;;;;;297.13;177.90;;;6.60;1.00;;;;;;4962823;28;20107;-70
2023/01/04 00:05:07;;;;;;;314.92;186.30;;;6.60;1.00;;;;;;4969630;28;20047;-72
2023/01/04 00:07:36;;;;;;;354.65;214.20;;;6.50;99.90;;;;;;4975737;28;20610;-74
2023/01/04 00:10:04;;;;;;;397.98;237.75;;;6.50;1.00;;;;;;4980061;28;20043;-73
2023/01/04 00:12:32;;;;;;;383.83;230.93;;;6.50;99.90;;;;;;4980285;28;20470;-72
2023/01/04 00:14:59;;;;;;;352.08;211.18;;;6.50;99.90;;;;;;4979288;28;20042;-71
2023/01/04 00:17:27;;;;;;;342.48;209.52;;;6.50;1.00;;;;;;4967650;28;20058;-73
2023/01/04 00:19:54;;;;;;;304.02;181.52;;;6.40;1.00;;;;;;4976706;28;20157;-72
2023/01/04 00:22:21;;;;;;;368.38;222.50;;;6.50;1.00;;;;;;4973589;28;20043;-71
2023/01/04 00:24:50;;;;;;;329.50;191.73;;;6.40;1.00;;;;;;4966737;28;20050;-73
2023/01/04 00:27:18;;;;;;;319.00;191.82;;;6.40;1.00;;;;;;4967702;28;20049;-71
2023/01/04 00:29:45;;;;;;;338.70;203.60;;;6.40;1.00;;;;;;4963212;28;20587;-72
2023/01/04 00:32:13;;;;;;;377.15;229.38;;;6.30;1.00;;;;;;4965368;28;20051;-71
2023/01/04 00:34:40;;;;;;;357.75;219.98;;;6.30;1.00;;;;;;4963282;28;20043;-73
2023/01/04 00:37:07;;;;;;;336.85;203.57;;;6.20;1.00;;;;;;4961176;28;20062;-72
2023/01/04 00:39:35;;;;;;;291.35;175.95;;;6.20;1.00;;;;;;4961370;28;20054;-72
2023/01/04 00:42:05;;;;;;;215.23;127.30;;;6.20;99.90;;;;;;4961151;28;20042;-72
2023/01/04 00:44:33;;;;;;;259.30;152.93;;;6.20;99.90;;;;;;4961575;28;20092;-71
2023/01/04 00:47:02;;;;;;;339.88;203.60;;;6.20;99.90;;;;;;4961101;28;20070;-72
2023/01/04 00:49:30;;;;;;;360.80;217.00;;;6.30;99.90;;;;;;4959271;28;20783;-71
2023/01/04 00:51:57;;;;;;;358.65;215.55;;;6.30;99.90;;;;;;4961320;28;20043;-72
2023/01/04 00:54:25;;;;;;;357.27;215.45;;;6.30;99.90;;;;;;4961386;28;20383;-71
2023/01/04 00:56:53;;;;;;;415.95;252.88;;;6.30;99.90;;;;;;4960315;28;20045;-72
2023/01/04 00:59:22;;;;;;;402.88;238.88;;;6.30;99.90;;;;;;4960484;28;20130;-73
2023/01/04 01:01:50;;;;;;;363.75;216.88;;;6.30;99.90;;;;;;4961611;28;20042;-73
2023/01/04 01:04:20;;;;;;;361.38;219.85;;;6.30;99.90;;;;;;4960629;28;20049;-71
2023/01/04 01:06:47;;;;;;;436.52;274.48;;;6.30;99.90;;;;;;4959407;28;20046;-72
2023/01/04 01:09:15;;;;;;;435.17;272.52;;;6.20;99.90;;;;;;4958957;28;20422;-71
2023/01/04 01:11:43;;;;;;;363.13;222.50;;;6.20;99.90;;;;;;4962782;28;20038;-72
2023/01/04 01:14:16;;;;;;;385.98;235.00;;;6.30;99.90;;;;;;4960878;28;20043;-73
2023/01/04 01:16:46;;;;;;;378.95;226.88;;;6.30;99.90;;;;;;4962606;28;20483;-72
2023/01/04 01:19:13;;;;;;;352.85;214.32;;;6.30;99.90;;;;;;4963826;28;20051;-73
2023/01/04 01:21:42;;;;;;;387.55;236.73;;;6.20;99.90;;;;;;4962531;28;20137;-71
2023/01/04 01:24:14;;;;;;;319.50;192.13;;;6.10;99.90;;;;;;4962598;28;20049;-72
2023/01/04 01:26:42;;;;;;;338.25;204.05;;;6.10;99.90;;;;;;4926830;29;20428;-75
2023/01/04 01:29:09;;;;;;;295.92;172.85;;;6.10;99.90;;;;;;4928952;29;20239;-73
2023/01/04 01:31:38;;;;;;;326.45;192.32;;;6.00;99.90;;;;;;4926750;29;20131;-72
2023/01/04 01:34:07;;;;;;;280.40;161.13;;;6.00;99.90;;;;;;4925384;29;20050;-71
2023/01/04 01:36:34;;;;;;;237.95;137.85;;;6.00;99.90;;;;;;4927165;29;20036;-72
2023/01/04 01:39:01;;;;;;;224.25;133.35;;;6.00;99.90;;;;;;4925557;29;20542;-72
2023/01/04 01:41:31;;;;;;;230.07;134.88;;;6.10;99.90;;;;;;4926080;29;20445;-74
2023/01/04 01:44:00;;;;;;;248.63;146.95;;;6.10;99.90;;;;;;4923033;29;20386;-72
2023/01/04 01:46:33;;;;;;;283.85;168.85;;;6.10;99.90;;;;;;4926094;29;20040;-73
2023/01/04 01:49:05;;;;;;;324.25;195.55;;;6.10;99.90;;;;;;4924260;29;20468;-71
2023/01/04 01:51:35;;;;;;;348.10;211.13;;;6.10;99.90;;;;;;4923062;29;20517;-74
2023/01/04 01:54:09;;;;;;;346.58;207.13;;;6.10;99.90;;;;;;4924699;29;20064;-72
2023/01/04 01:56:39;;;;;;;340.92;213.18;;;6.10;99.90;;;;;;4923657;29;20044;-72
2023/01/04 01:59:09;;;;;;;261.88;153.85;;;6.00;99.90;;;;;;4924491;29;20047;-72
2023/01/04 02:01:37;;;;;;;243.00;147.40;;;5.90;99.90;;;;;;4925320;29;20033;-70
2023/01/04 02:04:06;;;;;;;261.13;153.85;;;5.80;99.90;;;;;;4924275;29;20404;-72
2023/01/04 02:06:39;;;;;;;254.15;147.40;;;5.80;99.90;;;;;;4923128;29;20558;-72
2023/01/04 02:09:06;;;;;;;220.43;131.05;;;5.80;99.90;;;;;;4925865;29;20165;-72
2023/01/04 02:11:34;;;;;;;231.45;138.10;;;5.80;99.90;;;;;;4925253;29;20052;-73
2023/01/04 02:17:05;;;;;;;222.57;131.48;;;5.80;99.90;;;;;;4922450;29;20044;-71
2023/01/04 02:19:54;;;;;;;269.42;161.25;;;5.80;99.90;;;;;;4923295;29;20047;-71
2023/01/04 02:22:48;;;;;;;249.30;150.45;;;5.70;99.90;;;;;;4924430;29;20040;-72
2023/01/04 02:25:32;;;;;;;256.63;150.25;;;5.70;99.90;;;;;;4941199;28;20051;-72
2023/01/04 02:28:05;;;;;;;290.40;173.00;;;5.70;99.90;;;;;;4960268;28;20476;-72
2023/01/04 02:31:05;;;;;;;224.88;135.75;;;5.70;99.90;;;;;;4961901;28;20046;-71
2023/01/04 02:33:44;;;;;;;263.05;155.05;;;5.70;99.90;;;;;;4960899;28;20051;-71
2023/01/04 02:36:19;;;;;;;287.75;172.90;;;5.70;99.90;;;;;;4968099;28;20042;-72
2023/01/04 02:38:58;;;;;;;280.80;162.98;;;5.70;99.90;;;;;;4969343;28;20157;-73
2023/01/04 02:41:32;;;;;;;289.25;167.65;;;5.70;99.90;;;;;;4963450;28;20058;-72
2023/01/04 02:46:53;;;;;;;287.17;166.63;;;5.70;99.90;;;;;;4962158;28;20105;-72
2023/01/04 02:52:06;;;;;;;239.65;142.00;;;5.70;99.90;;;;;;4938608;28;20055;-71
2023/01/04 02:54:34;;;;;;;241.07;145.85;;;5.70;99.90;;;;;;4960996;28;20051;-73
2023/01/04 02:57:15;;;;;;;242.90;142.75;;;5.80;99.90;;;;;;4961247;28;20043;-72
2023/01/04 03:00:18;;;;;;;225.73;132.75;;;5.80;99.90;;;;;;4961204;28;20043;-72
2023/01/04 03:08:49;;;;;;;207.07;128.17;;;5.80;99.90;;;;;;4959803;28;20073;-72
2023/01/04 03:14:08;;;;;;;232.73;143.38;;;5.70;99.90;;;;;;4964589;28;20527;-72
2023/01/04 03:16:38;;;;;;;231.45;141.85;;;5.70;99.90;;;;;;4960744;28;20067;-72
2023/01/04 03:19:09;;;;;;;218.57;132.73;;;5.70;99.90;;;;;;4960603;28;20070;-72
2023/01/04 03:21:42;;;;;;;216.75;128.23;;;5.60;99.90;;;;;;4960855;28;20039;-72
2023/01/04 03:35:45;;;;;;;182.82;111.78;;;5.40;99.90;;;;;;4961414;28;20038;-73
2023/01/04 03:49:41;;;;;;;131.55;80.90;;;5.30;99.90;;;;;;4960295;28;20794;-71
2023/01/04 03:52:10;;;;;;;127.97;78.60;;;5.20;99.90;;;;;;4960282;28;20079;-72
2023/01/04 03:54:42;;;;;;;126.25;79.20;;;5.20;99.90;;;;;;4958540;28;20047;-72
2023/01/04 03:57:11;;;;;;;126.25;74.70;;;5.20;99.90;;;;;;4959963;28;20050;-71
2023/01/04 03:59:45;;;;;;;116.57;73.68;;;5.20;99.90;;;;;;4960829;28;20031;-71
2023/01/04 04:02:18;;;;;;;132.80;81.38;;;5.20;99.90;;;;;;4961055;28;20271;-73
2023/01/04 04:10:17;;;;;;;113.80;72.45;;;5.40;99.90;;;;;;4960795;28;20070;-72
2023/01/04 04:12:47;;;;;;;96.78;60.97;;;5.50;99.90;;;;;;4957506;28;20058;-71
2023/01/04 04:15:15;;;;;;;98.20;61.25;;;5.60;99.90;;;;;;4959814;28;20516;-71
2023/01/04 04:17:42;;;;;;;99.28;58.40;;;5.60;99.90;;;;;;4959179;28;20039;-72
2023/01/04 04:20:11;;;;;;;93.82;56.35;;;5.70;99.90;;;;;;4960755;28;20039;-73
2023/01/04 04:22:39;;;;;;;102.35;60.47;;;5.60;99.90;;;;;;4961057;28;20503;-72
2023/01/04 04:25:07;;;;;;;86.93;53.60;;;5.60;99.90;;;;;;4959779;28;20055;-72
2023/01/04 04:27:36;;;;;;;96.43;58.33;;;5.50;1.00;;;;;;4960770;28;20054;-72
2023/01/04 04:30:04;;;;;;;119.00;72.45;;;5.50;1.00;;;;;;4958986;28;20137;-71
2023/01/04 04:32:31;;;;;;;132.45;77.63;;;5.40;99.90;;;;;;4959710;28;20039;-71
2023/01/04 04:34:59;;;;;;;136.57;82.28;;;5.30;95.50;;;;;;4960077;28;20043;-72
2023/01/04 04:37:29;;;;;;;155.25;89.22;;;5.20;99.90;;;;;;4960180;28;20499;-72
2023/01/04 04:39:56;;;;;;;167.88;103.65;;;5.20;99.90;;;;;;4960301;28;20043;-72
2023/01/04 04:42:23;;;;;;;164.82;101.72;;;5.20;99.90;;;;;;4961621;28;20059;-73
2023/01/04 04:44:52;;;;;;;164.32;103.28;;;5.20;99.90;;;;;;4959757;28;20106;-71
2023/01/04 04:47:20;;;;;;;158.60;97.75;;;5.20;99.90;;;;;;4960301;28;20040;-71
2023/01/04 04:49:47;;;;;;;149.20;94.30;;;5.20;99.90;;;;;;4962343;28;20399;-72
2023/01/04 04:52:14;;;;;;;141.43;87.97;;;5.20;99.90;;;;;;4971351;28;20046;-72
2023/01/04 04:54:42;;;;;;;141.90;87.95;;;5.30;99.90;;;;;;4966304;28;20057;-72
2023/01/04 04:57:09;;;;;;;139.57;86.93;;;5.30;99.90;;;;;;4964757;28;20047;-74
2023/01/04 04:59:37;;;;;;;132.77;84.22;;;5.50;99.90;;;;;;4963033;28;20043;-71
2023/01/04 05:02:06;;;;;;;145.02;87.32;;;5.50;99.90;;;;;;4964202;28;20066;-71
2023/01/04 05:04:33;;;;;;;154.55;95.03;;;5.60;99.90;;;;;;4963326;28;20550;-71
2023/01/04 05:07:00;;;;;;;154.82;93.03;;;5.60;99.90;;;;;;4962670;28;20047;-72
2023/01/04 05:09:28;;;;;;;138.90;86.47;;;5.60;99.90;;;;;;4963113;28;20051;-73
2023/01/04 05:14:40;;;;;;;137.88;83.25;;;5.70;1.00;;;;;;4967001;28;20490;-71
2023/01/04 05:17:09;;;;;;;129.10;76.22;;;5.60;1.00;;;;;;4973382;28;20051;-72
2023/01/04 05:19:36;;;;;;;132.45;77.82;;;5.60;1.00;;;;;;4974886;28;20047;-72
2023/01/04 05:22:04;;;;;;;124.65;76.50;;;5.60;1.00;;;;;;4966639;28;20046;-72
2023/01/04 05:24:31;;;;;;;127.78;76.50;;;5.60;99.90;;;;;;4962436;28;20403;-71
2023/01/04 05:26:59;;;;;;;131.55;80.35;;;5.60;99.90;;;;;;4963862;28;20062;-72
2023/01/04 05:32:12;;;;;;;141.55;83.47;;;5.70;99.90;;;;;;4963976;28;20078;-72
2023/01/04 05:34:39;;;;;;;129.65;80.43;;;5.80;99.90;;;;;;4962401;28;20062;-73
2023/01/04 05:37:07;;;;;;;125.97;75.63;;;5.80;1.00;;;;;;4965531;28;20039;-73
2023/01/04 05:39:34;;;;;;;119.13;72.25;;;5.80;1.00;;;;;;4970017;28;20054;-73
2023/01/04 05:44:47;;;;;;;103.80;62.90;;;5.70;99.90;;;;;;4967901;28;20054;-70
2023/01/04 05:47:16;;;;;;;103.47;62.97;;;5.70;99.90;;;;;;4967831;28;20102;-71
2023/01/04 05:49:43;;;;;;;118.07;72.28;;;5.80;99.90;;;;;;4963146;28;20070;-71
2023/01/04 05:52:12;;;;;;;150.38;93.40;;;5.80;99.90;;;;;;4962570;28;21000;-73
2023/01/04 05:54:39;;;;;;;150.30;95.10;;;5.80;99.90;;;;;;4961276;28;20047;-73
2023/01/04 05:57:07;;;;;;;177.57;98.38;;;5.80;99.90;;;;;;4962991;28;20042;-72
2023/01/04 05:59:34;;;;;;;168.55;102.85;;;5.80;99.90;;;;;;4961222;28;20050;-72
2023/01/04 06:02:02;;;;;;;146.23;85.63;;;5.90;99.90;;;;;;4962668;28;20117;-72
2023/01/04 06:04:31;;;;;;;138.55;80.32;;;5.90;99.90;;;;;;4962968;28;20043;-72
2023/01/04 06:06:58;;;;;;;136.02;77.43;;;5.90;99.90;;;;;;4963508;28;20068;-72
2023/01/04 06:09:26;;;;;;;137.70;78.75;;;6.00;99.90;;;;;;4963083;28;20138;-72
2023/01/04 06:11:54;;;;;;;134.02;80.57;;;5.90;55.50;;;;;;4963703;28;20054;-71
2023/01/04 06:14:21;;;;;;;125.30;76.57;;;6.00;99.90;;;;;;4963015;28;20051;-72
2023/01/04 06:16:49;;;;;;;136.80;81.05;;;6.00;99.90;;;;;;4960013;28;20039;-72
2023/01/04 06:19:16;;;;;;;157.18;93.10;;;6.10;99.90;;;;;;4963533;28;20205;-72
2023/01/04 06:21:45;;;;;;;182.23;105.82;;;6.10;99.90;;;;;;4959896;28;20495;-73
2023/01/04 06:24:12;;;;;;;190.23;108.65;;;6.20;99.90;;;;;;4962133;28;20122;-73
2023/01/04 06:26:40;;;;;;;174.50;103.70;;;6.20;1.00;;;;;;4960365;28;20055;-72
2023/01/04 06:29:07;;;;;;;242.95;136.07;;;6.20;1.00;;;;;;4959331;28;20066;-73
2023/01/04 06:31:35;;;;;;;241.60;138.35;;;6.20;1.00;;;;;;4958051;28;20443;-73
2023/01/04 06:34:02;;;;;;;216.90;123.30;;;6.20;99.90;;;;;;4960061;28;20047;-73
2023/01/04 06:36:30;;;;;;;212.35;119.47;;;6.20;1.00;;;;;;4956285;28;20043;-73
2023/01/04 06:39:00;;;;;;;224.40;130.45;;;6.30;10.60;;;;;;4960558;28;20043;-71
2023/01/04 06:41:28;;;;;;;211.15;128.68;;;6.20;1.00;;;;;;4960072;28;20543;-71
2023/01/04 06:43:55;;;;;;;201.30;118.47;;;6.10;1.00;;;;;;4960356;28;20106;-72
2023/01/04 06:46:23;;;;;;;195.38;116.82;;;6.10;99.90;;;;;;4960508;28;20062;-72
2023/01/04 06:48:52;;;;;;;172.05;103.85;;;6.20;1.00;;;;;;4959509;28;20054;-73
2023/01/04 06:51:20;;;;;;;194.65;115.32;;;6.30;99.90;;;;;;4961680;28;20549;-72
2023/01/04 06:53:47;;;;;;;219.60;126.25;;;6.50;99.90;;;;;;4961453;28;20046;-70
2023/01/04 06:56:16;;;;;;;211.88;123.72;;;6.60;1.00;;;;;;4958436;28;20098;-72
2023/01/04 06:58:44;;;;;;;237.05;138.80;;;6.70;1.00;;;;;;4957387;28;20039;-72
2023/01/04 07:01:11;;;;;;;268.48;157.95;;;6.70;99.90;;;;;;4961112;28;20046;-74
2023/01/04 07:03:39;;;;;;;258.95;151.60;;;6.70;99.90;;;;;;4968678;28;20034;-72
2023/01/04 07:06:09;;;;;;;271.27;156.45;;;6.70;99.90;;;;;;4964409;28;20047;-72
2023/01/04 07:08:36;;;;;;;259.13;153.95;;;6.80;99.90;;;;;;4961475;28;20078;-72
2023/01/04 07:11:04;;;;;;;263.90;150.38;;;6.80;1.00;;;;;;4960497;28;20105;-71
2023/01/04 07:13:33;;;;;;;254.00;149.60;;;6.80;99.90;;;;;;4958143;28;20348;-72
2023/01/04 07:16:01;;;;;;;276.63;156.10;;;6.80;1.00;;;;;;4961901;28;20619;-72
2023/01/04 07:18:28;;;;;;;299.17;170.25;;;6.80;1.00;;;;;;4960002;28;20053;-72
2023/01/04 07:20:56;;;;;;;300.25;166.50;;;6.90;1.00;;;;;;4958648;28;20062;-73
2023/01/04 07:23:23;;;;;;;298.23;157.10;;;6.90;1.00;;;;;;4960558;28;20032;-72
2023/01/04 07:25:50;;;;;;;251.50;144.75;;;6.90;1.00;;;;;;4960231;28;20407;-71
2023/01/04 07:29:13;;;;;;;238.95;143.48;;;7.00;1.00;;;;;;4959511;28;20035;-71
2023/01/04 07:31:20;;;;;;;247.07;143.00;;;7.00;99.90;;;;;;4959735;28;20475;-71
2023/01/04 07:33:50;;;;;;;258.83;150.52;;;7.20;1.00;;;;;;4959610;28;20067;-72
2023/01/04 07:36:18;;;;;;;262.30;156.57;;;7.20;15.60;;;;;;4956543;28;20094;-72
2023/01/04 07:38:45;;;;;;;270.38;157.45;;;7.30;99.90;;;;;;4954931;28;20032;-72
2023/01/04 07:41:12;;;;;;;273.30;165.27;;;7.20;99.90;;;;;;4960424;28;20045;-71
2023/01/04 07:43:40;;;;;;;290.73;175.43;;;7.30;1.00;;;;;;4960895;28;20070;-71
2023/01/04 07:46:07;;;;;;;278.05;170.80;;;7.30;1.00;;;;;;4959749;28;20047;-73
2023/01/04 07:48:36;;;;;;;274.13;168.68;;;7.40;1.00;;;;;;4957774;28;20043;-73
2023/01/04 07:51:04;;;;;;;283.88;172.73;;;7.50;1.00;;;;;;4960140;28;20069;-72
2023/01/04 07:53:33;;;;;;;265.63;164.52;;;7.60;99.90;;;;;;4960811;28;20051;-72
2023/01/04 07:56:01;;;;;;;248.15;150.50;;;7.70;1.00;;;;;;4962575;28;20039;-74
2023/01/04 07:58:32;;;;;;;233.48;144.60;;;7.70;99.90;;;;;;4966172;28;20070;-73
2023/01/04 08:01:07;;;;;;;236.35;142.63;;;7.70;1.00;;;;;;4969112;28;20039;-73
2023/01/04 08:03:36;;;;;;;225.75;136.25;;;7.70;99.90;;;;;;4964497;28;20047;-72
2023/01/04 08:06:04;;;;;;;249.52;146.60;;;7.70;1.00;;;;;;4965388;28;20043;-72
2023/01/04 08:08:31;;;;;;;278.65;168.48;;;7.80;99.90;;;;;;4959932;28;20126;-72
2023/01/04 08:11:01;;;;;;;256.42;162.38;;;7.70;99.90;;;;;;4956437;28;20044;-72
2023/01/04 08:13:29;;;;;;;225.18;145.48;;;7.80;1.00;;;;;;4955273;28;20054;-73
2023/01/04 08:15:56;;;;;;;199.32;127.07;;;7.60;99.90;;;;;;4961168;28;20039;-72
2023/01/04 08:18:24;;;;;;;219.10;140.00;;;7.70;99.90;;;;;;4960824;28;20039;-72
2023/01/04 08:21:02;;;;;;;197.43;125.53;;;7.70;99.90;;;;;;4964437;28;20035;-72
2023/01/04 08:23:29;;;;;;;204.95;129.27;;;7.90;1.00;;;;;;4957193;28;20075;-72
2023/01/04 08:26:03;;;;;;;254.13;161.05;;;7.90;99.90;;;;;;4959840;28;20047;-72
2023/01/04 08:28:30;;;;;;;209.40;132.48;;;7.90;99.90;;;;;;4960649;28;20056;-72
2023/01/04 08:30:58;;;;;;;227.07;147.57;;;8.00;9.70;;;;;;4966916;28;20043;-72
2023/01/04 08:33:25;;;;;;;248.25;153.68;;;8.00;1.00;;;;;;4974222;28;20035;-72
2023/01/04 08:35:55;;;;;;;233.93;144.40;;;8.10;1.00;;;;;;4980637;28;20061;-72
2023/01/04 08:38:22;;;;;;;213.63;132.35;;;8.20;1.00;;;;;;4966166;28;20950;-72
2023/01/04 08:40:49;;;;;;;219.27;138.75;;;8.30;1.00;;;;;;4961685;28;20046;-72
2023/01/04 08:43:17;;;;;;;223.45;138.02;;;8.40;90.10;;;;;;4963769;28;20055;-72
2023/01/04 08:45:44;;;;;;;199.60;126.82;;;8.40;99.90;;;;;;4963973;28;20040;-73
2023/01/04 08:48:11;;;;;;;202.82;128.05;;;8.50;99.90;;;;;;4963596;28;20043;-72
2023/01/04 08:50:40;;;;;;;205.90;128.38;;;8.60;1.00;;;;;;4963829;28;20032;-72
2023/01/04 08:53:09;;;;;;;228.88;143.82;;;8.70;1.00;;;;;;4964145;28;20051;-71
2023/01/04 08:55:37;;;;;;;231.13;136.93;;;8.80;99.90;;;;;;4964101;28;20110;-72
2023/01/04 08:58:06;;;;;;;221.40;141.90;;;8.80;99.90;;;;;;4963076;28;20559;-74
2023/01/04 09:00:34;;;;;;;220.50;136.50;;;8.80;99.90;;;;;;4958836;28;20416;-71
2023/01/04 09:03:01;;;;;;;201.85;128.13;;;8.80;99.90;;;;;;4961744;28;20406;-72
2023/01/04 09:05:31;;;;;;;197.82;127.72;;;9.00;1.00;;;;;;4964732;28;20062;-73
2023/01/04 09:08:00;;;;;;;203.20;128.18;;;9.20;29.10;;;;;;4964119;28;20042;-72
2023/01/04 09:10:29;;;;;;;193.82;122.25;;;9.20;1.00;;;;;;4962962;28;20059;-72
2023/01/04 09:12:56;;;;;;;210.05;134.00;;;9.30;1.00;;;;;;4963404;28;20419;-73
2023/01/04 09:15:24;;;;;;;205.48;133.60;;;9.50;99.90;;;;;;4964588;28;20046;-72
2023/01/04 09:17:52;;;;;;;202.43;128.15;;;9.70;99.90;;;;;;4966898;28;20065;-72
2023/01/04 09:20:19;;;;;;;196.88;123.15;;;9.90;99.90;;;;;;4965849;28;20043;-73
2023/01/04 09:22:46;;;;;;;179.15;112.30;;;10.20;99.90;;;;;;4962799;28;20046;-72
2023/01/04 09:25:14;;;;;;;187.30;120.50;;;10.40;99.90;;;;;;4961204;28;20071;-72
2023/01/04 09:27:44;;;;;;;171.77;109.60;;;10.50;1.00;;;;;;4962155;28;20073;-73
2023/01/04 09:30:12;;;;;;;158.45;102.95;;;10.70;99.90;;;;;;4962828;28;20423;-72
2023/01/04 09:32:40;;;;;;;176.18;112.00;;;10.80;99.90;;;;;;4963870;28;20074;-70
2023/01/04 09:35:08;;;;;;;169.20;110.28;;;10.90;1.00;;;;;;4963533;28;20363;-71
2023/01/04 09:37:35;;;;;;;164.77;110.57;;;10.90;1.00;;;;;;4962347;28;20373;-71
2023/01/04 09:40:03;;;;;;;137.35;90.47;;;11.00;1.00;;;;;;4960295;28;20174;-72
2023/01/04 09:42:34;;;;;;;147.30;97.93;;;11.10;1.00;;;;;;4962967;28;20039;-71
2023/01/04 09:45:15;;;;;;;130.32;87.38;;;11.10;1.00;;;;;;4962760;28;20490;-73
2023/01/04 09:47:50;;;;;;;139.02;89.43;;;11.10;1.00;;;;;;4963163;28;20043;-72
2023/01/04 09:50:21;;;;;;;162.93;111.72;;;11.00;1.00;;;;;;4962596;28;20051;-72
2023/01/04 09:53:04;;;;;;;160.27;101.47;;;11.00;1.00;;;;;;4962755;28;20537;-72
2023/01/04 09:55:36;;;;;;;151.27;100.05;;;10.90;1.00;;;;;;4961919;28;20049;-74
2023/01/04 09:58:12;;;;;;;160.25;107.43;;;10.90;1.00;;;;;;4962901;28;20035;-72
2023/01/04 10:00:43;;;;;;;;;;;10.80;1.00;;;;;;4961180;28;20043;-72
2023/01/04 10:03:14;;;;;;;165.40;105.90;;;11.00;1.00;;;;;;4961657;28;19945;-73
2023/01/04 10:05:42;;;;;;;154.90;103.70;;;11.10;1.00;;;;;;4963036;28;20044;-73
2023/01/04 10:08:16;;;;;;;152.90;99.47;;;11.20;1.00;;;;;;4961759;28;20142;-76
2023/01/04 10:10:57;;;;;;;149.70;97.45;;;11.40;1.00;;;;;;4961653;28;20546;-76
2023/01/04 10:13:42;;;;;;;142.55;94.05;;;11.40;1.00;;;;;;4962812;28;20050;-72
2023/01/04 10:16:21;;;;;;;136.93;90.88;;;11.40;1.00;;;;;;4963059;28;20484;-71
2023/01/04 10:18:55;;;;;;;137.68;92.82;;;11.50;1.00;;;;;;4962348;28;20071;-72
2023/01/04 10:21:34;;;;;;;136.02;91.28;;;11.60;1.00;;;;;;4961491;28;20078;-71
2023/01/04 10:24:36;;;;;;;135.27;90.07;;;11.50;1.00;;;;;;4962264;28;20043;-73
2023/01/04 10:27:08;;;;;;;148.68;99.82;;;11.40;1.00;;;;;;4956246;28;20088;-71
2023/01/04 10:29:54;;;;;;;164.30;108.32;;;11.30;1.00;;;;;;4959939;28;20035;-71
2023/01/04 10:32:26;;;;;;;;;;;11.10;1.00;;;;;;4968976;28;20074;-72
2023/01/04 10:34:54;;;;;;;171.65;114.13;;;11.00;1.00;;;;;;4972736;28;19929;-72
2023/01/04 10:37:26;;;;;;;184.52;119.35;;;10.90;1.00;;;;;;4961860;28;20043;-70
2023/01/04 10:39:56;;;;;;;195.50;125.55;;;10.90;1.00;;;;;;4960960;28;20209;-72
2023/01/04 10:42:32;;;;;;;192.35;124.90;;;10.80;1.00;;;;;;4961053;28;20047;-72
2023/01/04 10:45:12;;;;;;;193.18;125.70;;;10.70;1.00;;;;;;4960904;28;20039;-72
2023/01/04 10:47:49;;;;;;;224.30;141.85;;;10.80;1.00;;;;;;4960496;28;20134;-71
2023/01/04 10:50:22;;;;;;;222.70;142.45;;;10.80;1.00;;;;;;4960345;28;20054;-72
2023/01/04 10:52:55;;;;;;;216.88;144.95;;;10.70;1.00;;;;;;4961072;28;20046;-70
2023/01/04 10:55:30;;;;;;;217.10;138.65;;;10.70;31.90;;;;;;4961781;28;20443;-71
2023/01/04 10:58:04;;;;;;;225.30;142.88;;;10.60;95.80;;;;;;4962000;28;20043;-71
2023/01/04 11:00:38;;;;;;;209.70;137.65;;;10.50;99.90;;;;;;4961428;28;20074;-72
2023/01/04 11:03:13;;;;;;;183.40;119.60;;;10.50;99.90;;;;;;4969151;28;20039;-72
2023/01/04 11:05:45;;;;;;;172.63;108.22;;;10.50;99.90;;;;;;4968096;28;20047;-71
2023/01/04 11:08:17;;;;;;;154.90;102.18;;;10.50;99.90;;;;;;4967033;28;20050;-71
2023/01/04 11:10:50;;;;;;;134.93;89.20;;;10.60;99.90;;;;;;4961709;28;20343;-70
2023/01/04 11:13:18;;;;;;;138.05;91.45;;;10.60;3.90;;;;;;4961655;28;20077;-70
2023/01/04 11:15:46;;;;;;;122.18;83.05;;;10.70;1.00;;;;;;4959681;28;20035;-71
2023/01/04 11:18:16;;;;;;;112.60;76.57;;;10.70;1.00;;;;;;4956525;28;20065;-71
2023/01/04 11:20:44;;;;;;;121.60;76.07;;;10.80;1.00;;;;;;4962973;28;20047;-71
2023/01/04 11:23:14;;;;;;;104.25;67.63;;;10.90;1.00;;;;;;4959621;28;20047;-71
2023/01/04 11:25:47;;;;;;;86.78;59.60;;;11.00;1.00;;;;;;4960821;28;20074;-72
2023/01/04 11:28:19;;;;;;;82.30;54.78;;;11.10;1.00;;;;;;4960340;28;20138;-71
2023/01/04 11:30:54;;;;;;;82.90;55.08;;;11.20;99.90;;;;;;4963713;28;20043;-72
2023/01/04 11:33:24;;;;;;;69.35;46.88;;;11.30;99.90;;;;;;4968311;28;20058;-71
2023/01/04 11:35:54;;;;;;;74.63;45.55;;;11.20;99.90;;;;;;4963594;28;20543;-71
2023/01/04 11:38:23;;;;;;;65.45;45.70;;;11.10;99.90;;;;;;4958890;28;20039;-71
2023/01/04 11:41:02;;;;;;;59.70;41.88;;;11.10;99.90;;;;;;4960731;28;20042;-72
2023/01/04 11:43:30;;;;;;;59.72;37.00;;;11.30;99.90;;;;;;4960909;28;20530;-71
2023/01/04 11:46:03;;;;;;;49.85;34.03;;;11.40;99.90;;;;;;4961667;28;20498;-71
2023/01/04 11:48:41;;;;;;;42.78;28.65;;;11.40;90.90;;;;;;4956966;28;20566;-71
2023/01/04 11:51:18;;;;;;;42.30;25.70;;;11.60;1.00;;;;;;4959179;28;20036;-70
2023/01/04 11:53:46;;;;;;;37.42;25.25;;;11.70;1.00;;;;;;4956562;28;20940;-70
2023/01/04 11:56:17;;;;;;;40.80;27.58;;;11.70;1.00;;;;;;4959146;28;20062;-70
2023/01/04 11:59:02;;;;;;;35.28;25.30;;;11.80;1.00;;;;;;4956528;28;20038;-70
2023/01/04 12:01:30;;;;;;;42.45;25.48;;;11.90;1.00;;;;;;4957310;28;20103;-71
2023/01/04 12:04:00;;;;;;;39.80;25.85;;;12.00;1.00;;;;;;4958846;28;20039;-71
2023/01/04 12:06:36;;;;;;;37.38;28.20;;;12.00;1.00;;;;;;4960116;28;20046;-72
2023/01/04 12:09:04;;;;;;;22.05;16.35;;;12.00;1.00;;;;;;4961264;28;20049;-71
2023/01/04 12:11:35;;;;;;;29.40;20.08;;;12.00;1.00;;;;;;4960345;28;20501;-71
2023/01/04 12:14:04;;;;;;;31.10;20.88;;;12.00;1.00;;;;;;4960051;28;20043;-72
2023/01/04 12:16:48;;;;;;;28.58;19.33;;;12.00;1.00;;;;;;4958517;28;20050;-71
2023/01/04 12:19:19;;;;;;;31.05;18.15;;;12.10;1.00;;;;;;4959396;28;20053;-72
2023/01/04 12:21:51;;;;;;;26.50;14.80;;;12.10;1.00;;;;;;4959160;28;20067;-71
2023/01/04 12:24:22;;;;;;;26.75;17.35;;;12.10;1.00;;;;;;4960010;28;20077;-71
2023/01/04 12:26:51;;;;;;;39.17;21.63;;;12.10;1.00;;;;;;4959682;28;20175;-73
2023/01/04 12:29:42;;;;;;;32.60;20.30;;;12.00;1.00;;;;;;4959179;28;20047;-71
2023/01/04 12:32:39;;;;;;;33.42;19.38;;;12.00;1.00;;;;;;4965588;28;20047;-72
2023/01/04 12:36:05;;;;;;;34.20;19.73;;;11.90;1.00;;;;;;4965044;28;20067;-71
2023/01/04 12:39:18;;;;;;;32.78;19.65;;;12.00;1.00;;;;;;4956924;28;20039;-72
2023/01/04 12:42:22;;;;;;;29.63;19.38;;;12.00;1.00;;;;;;4959284;28;20043;-71
2023/01/04 12:45:21;;;;;;;28.90;17.95;;;12.00;1.00;;;;;;4958994;28;20066;-73
2023/01/04 12:51:15;;;;;;;24.50;16.52;;;11.80;1.00;;;;;;4957650;28;20039;-71
2023/01/04 12:53:58;;;;;;;32.65;18.15;;;11.70;1.00;;;;;;4955679;28;20057;-72
2023/01/04 12:56:58;;;;;;;26.13;18.45;;;11.60;1.00;;;;;;4962497;28;20486;-73
2023/01/04 12:59:34;;;;;;;30.90;20.17;;;11.50;1.00;;;;;;4960188;28;20049;-71
2023/01/04 13:02:22;;;;;;;36.20;20.60;;;11.40;1.00;;;;;;4961817;28;20050;-70
2023/01/04 13:04:51;;;;;;;28.33;20.45;;;11.40;1.00;;;;;;4959168;28;20051;-71
2023/01/04 13:07:23;;;;;;;35.45;21.25;;;11.40;1.00;;;;;;4960983;28;20039;-72
2023/01/04 13:09:56;;;;;;;37.53;23.85;;;11.40;1.00;;;;;;4958457;28;20055;-71
2023/01/04 13:12:53;;;;;;;35.47;23.60;;;11.40;1.00;;;;;;4961947;28;20045;-71
2023/01/04 13:15:27;;;;;;;56.08;32.90;;;11.50;1.00;;;;;;4963649;28;20113;-70
2023/01/04 13:17:55;;;;;;;42.05;27.63;;;11.40;1.00;;;;;;4962695;28;20127;-71
2023/01/04 13:20:25;;;;;;;52.60;31.13;;;11.40;1.00;;;;;;4964395;28;20049;-71
2023/01/04 13:22:55;;;;;;;43.38;28.35;;;11.40;1.00;;;;;;4962829;28;20039;-71
2023/01/04 13:25:24;;;;;;;48.35;29.58;;;11.50;1.00;;;;;;4962156;28;20057;-71
2023/01/04 13:27:58;;;;;;;53.45;32.28;;;11.50;1.00;;;;;;4955836;28;20047;-70
2023/01/04 13:30:34;;;;;;;44.60;27.67;;;11.50;1.00;;;;;;4959120;28;20097;-71
2023/01/04 13:33:16;;;;;;;56.90;34.30;;;11.50;1.00;;;;;;4958824;28;20118;-72
2023/01/04 13:35:44;;;;;;;55.15;33.75;;;11.60;1.00;;;;;;4961042;28;20122;-71
2023/01/04 13:38:15;;;;;;;46.28;31.23;;;11.60;1.00;;;;;;4960042;28;20039;-71
2023/01/04 13:40:48;;;;;;;48.10;32.78;;;11.70;1.00;;;;;;4962920;28;20050;-71
2023/01/04 13:43:45;;;;;;;53.70;32.80;;;11.70;1.00;;;;;;4957695;28;20057;-71